createdAt,value
2022-12-27T00:01:38.842Z,1.60
2022-12-27T00:04:07.457Z,1.55
2022-12-27T00:06:40.095Z,1.48
2022-12-27T00:09:18.745Z,2.20
2022-12-27T00:11:58.001Z,1.73
2022-12-27T00:14:28.495Z,1.70
2022-12-27T00:16:59.232Z,1.65
2022-12-27T00:19:30.605Z,2.30
2022-12-27T00:22:01.939Z,2.10
2022-12-27T00:24:37.749Z,3.00
2022-12-27T00:27:08.739Z,2.90
2022-12-27T00:29:42.988Z,1.00
2022-12-27T00:32:19.621Z,2.60
2022-12-27T00:34:49.301Z,2.97
2022-12-27T00:37:19.085Z,3.63
2022-12-27T00:39:48.088Z,2.45
2022-12-27T00:42:19.882Z,1.90
2022-12-27T00:44:48.386Z,1.52
2022-12-27T00:47:18.998Z,1.98
2022-12-27T00:49:51.018Z,1.58
2022-12-27T00:52:19.746Z,1.48
2022-12-27T00:54:55.494Z,1.98
2022-12-27T00:57:24.232Z,2.55
2022-12-27T01:00:06.212Z,1.90
2022-12-27T01:02:38.874Z,1.30
2022-12-27T01:05:10.732Z,0.77
2022-12-27T01:07:42.297Z,1.10
2022-12-27T01:10:37.466Z,1.85
2022-12-27T01:13:09.830Z,1.27
2022-12-27T01:15:59.990Z,1.70
2022-12-27T01:18:35.992Z,1.30
2022-12-27T01:21:08.926Z,1.27
2022-12-27T01:23:44.251Z,1.05
2022-12-27T01:26:17.801Z,1.23
2022-12-27T01:28:48.005Z,1.13
2022-12-27T01:31:23.486Z,1.17
2022-12-27T01:34:01.505Z,1.42
2022-12-27T01:36:31.931Z,1.25
2022-12-27T01:39:03.752Z,1.25
2022-12-27T01:41:56.927Z,1.40
2022-12-27T01:44:44.141Z,1.45
2022-12-27T01:50:18.654Z,1.40
2022-12-27T01:53:12.444Z,1.33
2022-12-27T01:55:57.164Z,1.50
2022-12-27T01:58:55.939Z,1.40
2022-12-27T02:01:29.403Z,1.33
2022-12-27T02:04:04.903Z,1.55
2022-12-27T02:06:39.287Z,1.38
2022-12-27T02:09:26.565Z,1.42
2022-12-27T02:11:57.670Z,1.23
2022-12-27T02:14:31.367Z,1.05
2022-12-27T02:17:03.823Z,1.65
2022-12-27T02:20:11.744Z,1.50
2022-12-27T02:23:02.028Z,1.10
2022-12-27T02:26:11.698Z,1.38
2022-12-27T02:28:46.714Z,1.05
2022-12-27T02:31:51.124Z,1.13
2022-12-27T02:34:35.506Z,1.50
2022-12-27T02:37:10.517Z,1.33
2022-12-27T02:39:46.893Z,1.20
2022-12-27T02:42:35.984Z,1.98
2022-12-27T02:45:32.924Z,1.98
2022-12-27T02:48:20.167Z,1.67
2022-12-27T02:51:33.934Z,1.67
2022-12-27T02:54:32.333Z,1.90
2022-12-27T02:57:22.121Z,1.58
2022-12-27T03:00:15.052Z,1.42
2022-12-27T03:03:24.120Z,2.10
2022-12-27T03:06:35.722Z,1.70
2022-12-27T03:09:44.605Z,2.07
2022-12-27T03:12:43.394Z,2.38
2022-12-27T03:15:54.390Z,1.70
2022-12-27T03:18:55.039Z,2.08
2022-12-27T03:21:56.706Z,1.63
2022-12-27T03:24:49.003Z,1.92
2022-12-27T03:27:28.685Z,1.75
2022-12-27T03:30:17.764Z,2.00
2022-12-27T03:33:12.832Z,2.00
2022-12-27T03:36:12.410Z,1.77
2022-12-27T03:38:49.603Z,1.67
2022-12-27T03:41:45.369Z,1.98
2022-12-27T03:44:26.663Z,1.83
2022-12-27T03:47:00.292Z,1.83
2022-12-27T03:49:39.286Z,1.27
2022-12-27T03:52:20.347Z,1.17
2022-12-27T03:54:50.891Z,1.50
2022-12-27T03:57:23.092Z,1.02
2022-12-27T03:59:51.887Z,1.58
2022-12-27T04:02:20.481Z,1.33
2022-12-27T04:04:50.138Z,1.63
2022-12-27T04:07:18.480Z,1.30
2022-12-27T04:10:05.554Z,1.75
2022-12-27T04:12:52.244Z,1.60
2022-12-27T04:15:39.241Z,1.45
2022-12-27T04:18:25.977Z,1.70
2022-12-27T04:21:13.046Z,1.60
2022-12-27T04:23:59.707Z,1.50
2022-12-27T04:26:46.669Z,1.75
2022-12-27T04:29:33.384Z,1.58
2022-12-27T04:32:22.655Z,1.63
2022-12-27T04:34:50.969Z,1.85
2022-12-27T04:37:20.139Z,1.60
2022-12-27T04:40:07.336Z,2.60
2022-12-27T04:42:54.359Z,1.85
2022-12-27T04:45:41.540Z,2.10
2022-12-27T04:48:50.415Z,2.10
2022-12-27T04:51:37.689Z,1.75
2022-12-27T04:54:39.241Z,2.05
2022-12-27T04:57:07.648Z,1.92
2022-12-27T04:59:54.687Z,1.73
2022-12-27T05:02:23.367Z,1.98
2022-12-27T05:04:52.929Z,1.73
2022-12-27T05:07:40.186Z,1.95
2022-12-27T05:10:30.997Z,1.38
2022-12-27T05:13:25.137Z,1.20
2022-12-27T05:15:53.939Z,1.42
2022-12-27T05:18:25.573Z,1.20
2022-12-27T05:21:38.320Z,2.03
2022-12-27T05:24:25.564Z,1.23
2022-12-27T05:27:03.901Z,0.85
2022-12-27T05:29:36.212Z,1.13
2022-12-27T05:32:13.258Z,1.58
2022-12-27T05:34:43.853Z,1.40
2022-12-27T05:37:20.346Z,2.03
2022-12-27T05:39:54.745Z,1.88
2022-12-27T05:42:27.392Z,1.98
2022-12-27T05:44:55.825Z,1.52
2022-12-27T05:47:29.180Z,1.42
2022-12-27T05:49:58.721Z,1.23
2022-12-27T05:52:27.285Z,1.63
2022-12-27T05:54:58.184Z,1.23
2022-12-27T05:57:27.086Z,0.83
2022-12-27T05:59:55.344Z,1.77
2022-12-27T06:02:24.327Z,1.42
2022-12-27T06:08:02.637Z,1.92
2022-12-27T06:10:31.148Z,2.50
2022-12-27T06:13:02.927Z,2.00
2022-12-27T06:15:32.075Z,1.60
2022-12-27T06:18:03.645Z,1.80
2022-12-27T06:20:32.050Z,1.80
2022-12-27T06:23:00.836Z,2.15
2022-12-27T06:25:29.212Z,1.88
2022-12-27T06:28:00.626Z,2.03
2022-12-27T06:30:34.384Z,1.85
2022-12-27T06:33:04.620Z,1.80
2022-12-27T06:35:33.085Z,2.10
2022-12-27T06:38:03.691Z,1.85
2022-12-27T06:40:32.986Z,2.40
2022-12-27T06:43:01.534Z,2.15
2022-12-27T06:45:30.655Z,2.92
2022-12-27T06:48:01.806Z,2.30
2022-12-27T06:50:31.647Z,2.47
2022-12-27T06:53:00.522Z,2.45
2022-12-27T06:55:38.847Z,2.25
2022-12-27T06:58:07.587Z,2.30
2022-12-27T07:00:36.046Z,2.38
2022-12-27T07:03:04.846Z,2.60
2022-12-27T07:05:38.628Z,2.60
2022-12-27T07:08:07.444Z,2.60
2022-12-27T07:10:37.211Z,2.10
2022-12-27T07:13:05.787Z,2.60
2022-12-27T07:15:34.469Z,1.80
2022-12-27T07:18:03.019Z,2.58
2022-12-27T07:20:31.285Z,2.50
2022-12-27T07:23:00.203Z,2.53
2022-12-27T07:25:31.469Z,2.25
2022-12-27T07:28:00.160Z,2.78
2022-12-27T07:30:31.952Z,2.75
2022-12-27T07:35:30.821Z,2.50
2022-12-27T07:37:59.426Z,2.17
2022-12-27T07:40:27.702Z,2.28
2022-12-27T07:42:56.559Z,2.35
2022-12-27T07:45:27.837Z,2.70
2022-12-27T07:47:56.571Z,2.35
2022-12-27T07:50:26.553Z,2.10
2022-12-27T07:52:55.932Z,2.60
2022-12-27T07:55:24.203Z,2.47
2022-12-27T07:57:53.050Z,2.03
2022-12-27T08:00:22.565Z,2.70
2022-12-27T08:02:54.131Z,2.15
2022-12-27T08:08:03.696Z,2.88
2022-12-27T08:10:36.230Z,2.50
2022-12-27T08:13:04.814Z,1.90
2022-12-27T08:15:33.632Z,2.28
2022-12-27T08:18:08.025Z,1.27
2022-12-27T08:20:41.055Z,2.03
2022-12-27T08:23:18.203Z,1.30
2022-12-27T08:25:48.978Z,2.00
2022-12-27T08:28:19.068Z,2.00
2022-12-27T08:30:47.482Z,2.15
2022-12-27T08:33:16.606Z,2.20
2022-12-27T08:35:53.732Z,1.77
2022-12-27T08:38:23.339Z,1.77
2022-12-27T08:41:20.924Z,2.80
2022-12-27T08:43:56.140Z,2.67
2022-12-27T08:46:24.826Z,2.38
2022-12-27T08:48:53.461Z,2.63
2022-12-27T08:51:34.312Z,2.50
2022-12-27T08:54:09.383Z,2.55
2022-12-27T08:56:37.950Z,1.70
2022-12-27T08:59:07.773Z,2.47
2022-12-27T09:01:37.268Z,2.13
2022-12-27T09:04:08.641Z,2.30
2022-12-27T09:06:45.360Z,2.40
2022-12-27T09:09:25.377Z,2.35
2022-12-27T09:11:57.257Z,2.63
2022-12-27T09:14:29.302Z,3.22
2022-12-27T09:17:00.853Z,3.10
2022-12-27T09:19:32.667Z,2.95
2022-12-27T09:22:01.089Z,2.97
2022-12-27T09:24:29.771Z,3.00
2022-12-27T09:26:58.236Z,2.45
2022-12-27T09:29:32.887Z,2.27
2022-12-27T09:32:04.829Z,2.88
2022-12-27T09:34:33.895Z,2.33
2022-12-27T09:37:02.281Z,2.25
2022-12-27T09:39:30.870Z,3.00
2022-12-27T09:45:21.270Z,2.42
2022-12-27T09:48:16.957Z,3.03
2022-12-27T09:51:10.445Z,3.30
2022-12-27T09:54:10.053Z,2.75
2022-12-27T09:57:09.668Z,2.40
2022-12-27T09:59:36.070Z,3.05
2022-12-27T10:02:22.314Z,3.40
2022-12-27T10:08:08.069Z,3.60
2022-12-27T10:11:35.632Z,3.20
2022-12-27T10:14:18.133Z,3.65
2022-12-27T10:19:51.554Z,3.67
2022-12-27T10:23:10.415Z,2.58
2022-12-27T10:25:40.420Z,3.33
2022-12-27T10:28:21.916Z,3.08
2022-12-27T10:30:52.681Z,3.20
2022-12-27T10:33:29.989Z,3.08
2022-12-27T10:35:58.921Z,2.95
2022-12-27T10:38:33.882Z,3.60
2022-12-27T10:41:32.501Z,2.35
2022-12-27T10:44:03.490Z,2.63
2022-12-27T10:46:35.063Z,1.90
2022-12-27T10:49:25.799Z,3.47
2022-12-27T10:52:16.726Z,2.88
2022-12-27T10:54:56.764Z,4.55
2022-12-27T10:57:36.982Z,4.60
2022-12-27T11:00:20.138Z,5.88
2022-12-27T11:03:00.852Z,3.88
2022-12-27T11:05:36.058Z,4.65
2022-12-27T11:08:20.955Z,4.28
2022-12-27T11:11:14.430Z,3.45
2022-12-27T11:13:44.251Z,3.72
2022-12-27T11:16:28.553Z,3.45
2022-12-27T11:18:59.523Z,2.80
2022-12-27T11:21:29.315Z,3.13
2022-12-27T11:24:02.966Z,3.60
2022-12-27T11:26:53.943Z,3.38
2022-12-27T11:29:27.111Z,4.22
2022-12-27T11:32:25.347Z,2.13
2022-12-27T11:34:58.006Z,2.70
2022-12-27T11:37:30.257Z,3.58
2022-12-27T11:40:42.319Z,2.40
2022-12-27T11:43:19.082Z,3.20
2022-12-27T11:46:01.568Z,2.17
2022-12-27T11:48:45.269Z,5.18
2022-12-27T11:51:44.337Z,5.05
2022-12-27T11:54:25.498Z,2.05
2022-12-27T11:57:08.514Z,3.08
2022-12-27T12:00:02.782Z,2.95
2022-12-27T12:02:54.360Z,3.22
2022-12-27T12:05:42.030Z,3.78
2022-12-27T12:08:35.148Z,2.20
2022-12-27T12:11:43.965Z,4.32
2022-12-27T12:14:25.255Z,6.70
2022-12-27T12:17:21.700Z,2.70
2022-12-27T12:20:28.005Z,5.57
2022-12-27T12:23:07.077Z,6.55
2022-12-27T12:25:52.547Z,5.47
2022-12-27T12:28:59.773Z,7.00
2022-12-27T12:31:49.536Z,3.97
2022-12-27T12:34:49.768Z,5.30
2022-12-27T12:37:37.640Z,2.47
2022-12-27T12:40:46.738Z,2.85
2022-12-27T12:43:43.319Z,5.57
2022-12-27T12:46:38.113Z,4.25
2022-12-27T12:49:09.469Z,4.30
2022-12-27T12:51:52.991Z,4.10
2022-12-27T12:54:36.699Z,5.43
2022-12-27T12:57:27.129Z,4.40
2022-12-27T13:00:31.962Z,3.97
2022-12-27T13:03:31.276Z,1.48
2022-12-27T13:06:30.302Z,4.10
2022-12-27T13:09:23.087Z,3.90
2022-12-27T13:12:19.797Z,3.67
2022-12-27T13:15:21.159Z,4.20
2022-12-27T13:18:33.802Z,4.07
2022-12-27T13:21:23.663Z,5.07
2022-12-27T13:24:07.791Z,5.20
2022-12-27T13:27:05.380Z,2.88
2022-12-27T13:30:04.699Z,4.93
2022-12-27T13:32:53.361Z,4.40
2022-12-27T13:38:22.925Z,3.70
2022-12-27T13:41:13.395Z,4.28
2022-12-27T13:44:18.882Z,2.78
2022-12-27T13:47:29.575Z,4.60
2022-12-27T13:50:33.254Z,4.53
2022-12-27T13:53:34.444Z,4.82
2022-12-27T13:56:53.545Z,4.43
2022-12-27T13:59:37.409Z,4.03
2022-12-27T14:02:18.267Z,4.70
2022-12-27T14:05:06.914Z,3.85
2022-12-27T14:07:55.355Z,4.45
2022-12-27T14:10:36.497Z,5.78
2022-12-27T14:13:09.291Z,7.75
2022-12-27T14:15:53.064Z,6.47
2022-12-27T14:19:32.826Z,5.80
2022-12-27T14:22:22.432Z,4.65
2022-12-27T14:25:08.874Z,5.43
2022-12-27T14:27:56.024Z,5.18
2022-12-27T14:30:39.818Z,5.15
2022-12-27T14:33:30.828Z,5.35
2022-12-27T14:36:37.281Z,4.32
2022-12-27T14:39:39.585Z,5.13
2022-12-27T14:42:47.108Z,4.38
2022-12-27T14:45:45.958Z,5.80
2022-12-27T14:48:42.679Z,5.68
2022-12-27T14:51:59.786Z,4.28
2022-12-27T14:55:00.959Z,4.55
2022-12-27T14:57:54.947Z,4.38
2022-12-27T15:00:58.813Z,2.35
2022-12-27T15:03:47.993Z,4.18
2022-12-27T15:06:44.650Z,4.57
2022-12-27T15:09:44.276Z,4.43
2022-12-27T15:12:38.374Z,4.00
2022-12-27T15:15:45.753Z,3.65
2022-12-27T15:18:46.485Z,3.55
2022-12-27T15:21:49.606Z,2.70
2022-12-27T16:43:56.369Z,4.00
2022-12-27T19:36:58.026Z,4.18
2022-12-27T19:39:35.164Z,5.43
2022-12-27T19:42:50.201Z,4.13
2022-12-27T20:01:27.646Z,3.50
2022-12-27T20:50:28.140Z,3.67
2022-12-27T20:53:30.197Z,3.50
2022-12-27T20:56:36.372Z,3.83
2022-12-27T20:59:22.335Z,3.50
2022-12-27T21:01:58.525Z,4.60
2022-12-27T21:04:27.530Z,3.47
2022-12-27T21:06:58.452Z,2.42
2022-12-27T21:09:39.985Z,3.70
2022-12-27T21:12:15.498Z,4.43
2022-12-27T21:15:42.766Z,5.05
2022-12-27T21:18:16.782Z,4.30
2022-12-27T21:20:49.818Z,4.32
2022-12-27T21:23:20.236Z,3.60
2022-12-27T21:25:57.051Z,4.55
2022-12-27T21:28:47.712Z,4.65
2022-12-27T21:31:19.168Z,3.65
2022-12-27T21:33:49.023Z,4.30
2022-12-27T21:36:24.276Z,4.18
2022-12-27T21:38:57.297Z,4.32
2022-12-27T21:41:53.068Z,5.18
2022-12-27T21:44:25.494Z,3.85
2022-12-27T21:46:53.976Z,5.35
2022-12-27T21:49:22.837Z,4.10
2022-12-27T21:52:01.251Z,4.10
2022-12-27T21:55:08.961Z,3.55
2022-12-27T21:57:44.667Z,5.10
2022-12-27T22:00:44.635Z,4.20
2022-12-27T22:03:41.948Z,4.20
2022-12-27T22:06:14.042Z,4.63
2022-12-27T22:08:44.538Z,4.45
2022-12-27T22:11:15.352Z,3.90
2022-12-27T22:13:46.106Z,7.15
2022-12-27T22:16:21.277Z,4.80
2022-12-27T22:18:51.171Z,5.93
2022-12-27T22:21:23.809Z,3.95
2022-12-27T22:24:02.199Z,4.47
2022-12-27T22:26:34.891Z,4.10
2022-12-27T22:29:04.849Z,3.67
2022-12-27T22:31:36.773Z,3.83
2022-12-27T22:34:06.544Z,3.45
2022-12-27T22:36:35.735Z,3.60
2022-12-27T22:39:05.114Z,3.97
2022-12-27T22:41:36.329Z,4.20
2022-12-27T22:44:10.993Z,3.77
2022-12-27T22:49:29.780Z,3.55
2022-12-27T22:51:59.406Z,3.95
2022-12-27T22:55:04.871Z,4.10
2022-12-27T22:57:16.753Z,4.45
2022-12-27T22:59:45.091Z,3.97
2022-12-27T23:02:13.765Z,4.10
2022-12-27T23:04:42.919Z,4.72
2022-12-27T23:07:20.317Z,5.43
2022-12-27T23:09:48.962Z,4.90
2022-12-27T23:12:17.673Z,5.13
2022-12-27T23:14:46.117Z,5.28
2022-12-27T23:17:18.182Z,5.40
2022-12-27T23:19:46.803Z,5.78
2022-12-27T23:22:24.907Z,6.15
2022-12-27T23:24:53.276Z,7.45
2022-12-27T23:27:54.383Z,6.03
2022-12-27T23:30:23.304Z,6.20
2022-12-27T23:32:52.102Z,11.25
2022-12-27T23:35:20.371Z,7.30
2022-12-27T23:37:50.363Z,7.13
2022-12-27T23:40:20.058Z,6.20
2022-12-27T23:42:48.913Z,6.97
2022-12-27T23:45:17.558Z,7.00
2022-12-27T23:47:46.319Z,6.97
2022-12-27T23:50:20.588Z,6.70
2022-12-27T23:52:49.730Z,7.15
2022-12-27T23:55:43.636Z,7.32
2022-12-27T23:58:29.327Z,7.15
